createdAt,value
2023-09-12T00:00:29.373Z,17.94
2023-09-12T00:02:57.275Z,17.94
2023-09-12T00:05:26.537Z,17.95
2023-09-12T00:07:54.882Z,17.97
2023-09-12T00:10:22.854Z,17.96
2023-09-12T00:12:50.675Z,17.95
2023-09-12T00:15:20.870Z,17.93
2023-09-12T00:17:49.726Z,17.93
2023-09-12T00:20:17.850Z,17.90
2023-09-12T00:22:47.712Z,17.90
2023-09-12T00:25:15.547Z,17.88
2023-09-12T00:27:43.371Z,17.88
2023-09-12T00:30:12.371Z,17.87
2023-09-12T00:32:40.333Z,17.85
2023-09-12T00:35:09.101Z,17.82
2023-09-12T00:37:36.874Z,17.79
2023-09-12T00:40:07.384Z,17.75
2023-09-12T00:42:35.233Z,17.69
2023-09-12T00:45:03.254Z,17.64
2023-09-12T00:47:32.668Z,17.59
2023-09-12T00:50:02.223Z,17.55
2023-09-12T00:52:31.570Z,17.51
2023-09-12T00:54:59.825Z,17.50
2023-09-12T00:57:29.119Z,17.47
2023-09-12T00:59:57.964Z,17.45
2023-09-12T01:02:27.063Z,17.44
2023-09-12T01:04:55.269Z,17.42
2023-09-12T01:07:23.131Z,17.39
2023-09-12T01:09:50.985Z,17.36
2023-09-12T01:12:19.060Z,17.34
2023-09-12T01:14:48.353Z,17.31
2023-09-12T01:17:16.241Z,17.27
2023-09-12T01:19:44.106Z,17.25
2023-09-12T01:22:29.572Z,17.23
2023-09-12T01:25:16.203Z,17.21
2023-09-12T01:27:48.219Z,17.19
2023-09-12T01:30:20.251Z,17.17
2023-09-12T01:32:49.182Z,17.17
2023-09-12T01:35:17.157Z,17.15
2023-09-12T01:37:44.966Z,17.14
2023-09-12T01:40:14.176Z,17.12
2023-09-12T01:42:47.000Z,17.08
2023-09-12T01:45:19.849Z,17.05
2023-09-12T01:47:51.809Z,17.02
2023-09-12T01:50:21.227Z,16.99
2023-09-12T01:52:50.972Z,16.97
2023-09-12T01:55:19.950Z,16.95
2023-09-12T01:57:50.903Z,16.90
2023-09-12T02:00:20.280Z,16.88
2023-09-12T02:02:48.258Z,16.87
2023-09-12T02:05:19.805Z,16.84
2023-09-12T02:07:48.552Z,16.83
2023-09-12T02:10:17.038Z,16.81
2023-09-12T02:12:45.378Z,16.80
2023-09-12T02:15:15.008Z,16.77
2023-09-12T02:17:42.964Z,16.74
2023-09-12T02:20:12.480Z,16.74
2023-09-12T02:22:40.339Z,16.73
2023-09-12T02:25:09.588Z,16.71
2023-09-12T02:27:37.599Z,16.69
2023-09-12T02:30:06.767Z,16.68
2023-09-12T02:32:36.049Z,16.66
2023-09-12T02:35:03.967Z,16.64
2023-09-12T02:37:31.905Z,16.64
2023-09-12T02:39:59.732Z,16.62
2023-09-12T02:42:27.635Z,16.59
2023-09-12T02:44:55.523Z,16.55
2023-09-12T02:47:23.330Z,16.53
2023-09-12T02:49:53.171Z,16.50
2023-09-12T02:52:21.063Z,16.49
2023-09-12T02:54:49.725Z,16.46
2023-09-12T02:57:17.854Z,16.43
2023-09-12T02:59:46.988Z,16.41
2023-09-12T03:02:15.426Z,16.40
2023-09-12T03:04:43.371Z,16.39
2023-09-12T03:07:12.594Z,16.36
2023-09-12T03:09:41.165Z,16.34
2023-09-12T03:12:09.340Z,16.30
2023-09-12T03:14:37.219Z,16.27
2023-09-12T03:17:05.537Z,16.24
2023-09-12T03:19:34.729Z,16.22
2023-09-12T03:22:02.571Z,16.20
2023-09-12T03:24:32.284Z,16.21
2023-09-12T03:27:00.233Z,16.21
2023-09-12T03:29:28.180Z,16.18
2023-09-12T03:31:56.115Z,16.17
2023-09-12T03:34:23.985Z,16.16
2023-09-12T03:36:51.885Z,16.14
2023-09-12T03:39:19.712Z,16.11
2023-09-12T03:41:48.860Z,16.08
2023-09-12T03:44:17.024Z,16.04
2023-09-12T03:46:45.052Z,16.01
2023-09-12T03:49:13.847Z,16.01
2023-09-12T03:51:41.951Z,16.00
2023-09-12T03:54:09.991Z,15.98
2023-09-12T03:56:37.914Z,15.98
2023-09-12T03:59:08.015Z,15.98
2023-09-12T04:01:36.301Z,15.99
2023-09-12T04:04:04.838Z,16.00
2023-09-12T04:06:32.969Z,15.99
2023-09-12T04:09:00.879Z,15.99
2023-09-12T04:11:43.667Z,15.98
2023-09-12T04:14:16.748Z,15.97
2023-09-12T04:16:44.833Z,15.96
2023-09-12T04:19:12.756Z,15.97
2023-09-12T04:21:40.752Z,15.97
2023-09-12T04:24:09.901Z,15.98
2023-09-12T04:26:37.788Z,15.97
2023-09-12T04:29:06.142Z,15.96
2023-09-12T04:31:35.429Z,15.95
2023-09-12T04:34:03.332Z,15.94
2023-09-12T04:36:31.228Z,15.95
2023-09-12T04:38:59.130Z,15.95
2023-09-12T04:41:26.988Z,15.97
2023-09-12T04:43:54.879Z,16.01
2023-09-12T04:46:22.749Z,16.03
2023-09-12T04:48:52.215Z,16.07
2023-09-12T04:51:20.055Z,16.07
2023-09-12T04:53:52.578Z,16.07
2023-09-12T04:56:20.755Z,16.04
2023-09-12T04:58:49.314Z,16.01
2023-09-12T05:01:17.487Z,15.99
2023-09-12T05:03:45.486Z,16.00
2023-09-12T05:06:15.422Z,16.02
2023-09-12T05:08:43.559Z,16.05
2023-09-12T05:11:11.632Z,16.06
2023-09-12T05:13:40.725Z,16.06
2023-09-12T05:16:08.644Z,16.05
2023-09-12T05:18:36.534Z,16.05
2023-09-12T05:21:04.875Z,16.06
2023-09-12T05:23:34.253Z,16.07
2023-09-12T05:26:02.127Z,16.09
2023-09-12T05:28:29.986Z,16.09
2023-09-12T05:30:58.135Z,16.11
2023-09-12T05:33:26.068Z,16.12
2023-09-12T05:35:54.394Z,16.13
2023-09-12T05:38:22.220Z,16.17
2023-09-12T05:40:51.990Z,16.20
2023-09-12T05:43:20.291Z,16.24
2023-09-12T05:45:48.729Z,16.26
2023-09-12T05:48:16.845Z,16.32
2023-09-12T05:50:45.596Z,16.39
2023-09-12T05:53:13.439Z,16.45
2023-09-12T05:55:41.256Z,16.51
2023-09-12T05:58:10.488Z,16.57
2023-09-12T06:00:38.630Z,16.62
2023-09-12T06:03:06.725Z,16.68
2023-09-12T06:05:34.701Z,16.74
2023-09-12T06:08:02.588Z,16.80
2023-09-12T06:10:30.422Z,16.87
2023-09-12T06:12:58.275Z,16.93
2023-09-12T06:15:27.513Z,17.03
2023-09-12T06:17:56.162Z,17.10
2023-09-12T06:20:24.414Z,17.17
2023-09-12T06:22:52.598Z,17.24
2023-09-12T06:25:20.547Z,17.28
2023-09-12T06:27:48.550Z,17.32
2023-09-12T06:30:16.584Z,17.37
2023-09-12T06:32:45.920Z,17.44
2023-09-12T06:35:13.902Z,17.49
2023-09-12T06:37:41.739Z,17.53
2023-09-12T06:40:10.421Z,17.59
2023-09-12T06:42:38.293Z,17.67
2023-09-12T06:45:06.885Z,17.75
2023-09-12T06:47:34.803Z,17.81
2023-09-12T06:50:04.963Z,17.88
2023-09-12T06:52:34.977Z,17.92
2023-09-12T06:55:02.797Z,18.00
2023-09-12T06:57:31.233Z,18.03
2023-09-12T06:59:59.085Z,18.08
2023-09-12T07:02:28.654Z,18.13
2023-09-12T07:04:57.963Z,18.20
2023-09-12T07:07:27.127Z,18.28
2023-09-12T07:10:01.674Z,18.34
2023-09-12T07:12:36.047Z,18.42
2023-09-12T07:15:04.202Z,18.49
2023-09-12T07:17:32.074Z,18.58
2023-09-12T07:20:00.071Z,18.68
2023-09-12T07:22:29.485Z,18.79
2023-09-12T07:24:57.364Z,18.89
2023-09-12T07:27:25.308Z,18.99
2023-09-12T07:29:53.119Z,19.12
2023-09-12T07:32:22.557Z,19.20
2023-09-12T07:34:50.629Z,19.26
2023-09-12T07:37:18.440Z,19.36
2023-09-12T07:39:47.635Z,19.44
2023-09-12T07:42:15.534Z,19.51
2023-09-12T07:44:43.397Z,19.60
2023-09-12T07:47:11.276Z,19.69
2023-09-12T07:49:39.107Z,19.77
2023-09-12T07:52:07.876Z,19.83
2023-09-12T07:54:35.914Z,19.91
2023-09-12T07:57:05.653Z,19.95
2023-09-12T07:59:33.438Z,19.98
2023-09-12T08:02:01.381Z,20.03
2023-09-12T08:04:29.350Z,20.05
2023-09-12T08:06:58.823Z,20.08
2023-09-12T08:09:52.609Z,20.12
2023-09-12T08:12:23.301Z,20.15
2023-09-12T08:14:51.135Z,20.24
2023-09-12T08:17:19.495Z,20.31
2023-09-12T08:19:47.715Z,20.39
2023-09-12T08:22:15.797Z,20.48
2023-09-12T08:24:43.680Z,20.55
2023-09-12T08:27:11.531Z,20.61
2023-09-12T08:29:40.776Z,20.69
2023-09-12T08:32:08.637Z,20.80
2023-09-12T08:34:36.541Z,20.86
2023-09-12T08:37:04.433Z,20.95
2023-09-12T08:39:44.706Z,21.06
2023-09-12T08:42:15.642Z,21.14
2023-09-12T08:44:45.731Z,21.21
2023-09-12T08:47:14.129Z,21.29
2023-09-12T08:49:43.560Z,21.36
2023-09-12T08:52:12.543Z,21.44
2023-09-12T08:54:40.595Z,21.54
2023-09-12T08:57:09.451Z,21.61
2023-09-12T08:59:37.948Z,21.70
2023-09-12T09:02:10.896Z,21.75
2023-09-12T09:04:41.956Z,21.83
2023-09-12T09:07:11.879Z,21.92
2023-09-12T09:09:40.356Z,22.02
2023-09-12T09:12:09.769Z,22.12
2023-09-12T09:14:37.586Z,22.20
2023-09-12T09:17:10.633Z,22.25
2023-09-12T09:19:44.050Z,22.32
2023-09-12T09:22:11.984Z,22.36
2023-09-12T09:24:39.985Z,22.39
2023-09-12T09:27:07.915Z,22.44
2023-09-12T09:29:49.085Z,22.49
2023-09-12T09:32:23.230Z,22.57
2023-09-12T09:34:51.528Z,22.64
2023-09-12T09:37:20.824Z,22.71
2023-09-12T09:39:53.301Z,22.76
2023-09-12T09:42:21.864Z,22.81
2023-09-12T09:44:50.654Z,22.87
2023-09-12T09:47:21.948Z,22.89
2023-09-12T09:49:50.075Z,22.92
2023-09-12T09:52:17.968Z,22.99
2023-09-12T09:54:47.041Z,23.05
2023-09-12T09:57:14.944Z,23.12
2023-09-12T09:59:43.802Z,23.24
2023-09-12T10:02:22.482Z,23.29
2023-09-12T10:07:27.343Z,23.26
2023-09-12T10:09:55.770Z,23.26
2023-09-12T10:12:25.091Z,23.26
2023-09-12T10:14:53.710Z,23.24
2023-09-12T10:17:25.676Z,23.25
2023-09-12T10:19:58.178Z,23.25
2023-09-12T10:22:30.190Z,23.29
2023-09-12T10:24:58.603Z,23.33
2023-09-12T10:27:27.194Z,23.31
2023-09-12T10:29:55.276Z,23.34
2023-09-12T10:32:23.933Z,23.37
2023-09-12T10:34:54.077Z,23.46
2023-09-12T10:37:26.942Z,23.60
2023-09-12T10:39:55.515Z,23.67
2023-09-12T10:42:25.702Z,23.77
2023-09-12T10:44:54.060Z,23.87
2023-09-12T10:47:22.685Z,24.02
2023-09-12T10:49:50.815Z,24.19
2023-09-12T10:52:27.972Z,24.36
2023-09-12T10:54:56.451Z,24.52
2023-09-12T10:57:24.504Z,24.68
2023-09-12T11:00:13.064Z,24.84
2023-09-12T11:02:43.152Z,24.96
2023-09-12T11:05:38.703Z,25.07
2023-09-12T11:08:08.018Z,25.20
2023-09-12T11:10:35.927Z,25.34
2023-09-12T11:13:04.683Z,25.48
2023-09-12T11:15:33.080Z,25.65
2023-09-12T11:18:06.147Z,25.75
2023-09-12T11:20:55.111Z,25.68
2023-09-12T11:23:24.407Z,25.57
2023-09-12T11:26:06.116Z,25.42
2023-09-12T11:28:34.233Z,25.27
2023-09-12T11:31:02.445Z,25.19
2023-09-12T11:33:30.735Z,25.07
2023-09-12T11:36:03.027Z,24.97
2023-09-12T11:38:33.397Z,24.89
2023-09-12T11:41:01.954Z,24.81
2023-09-12T11:43:30.560Z,24.81
2023-09-12T11:45:59.408Z,24.80
2023-09-12T11:48:27.670Z,24.81
2023-09-12T11:50:57.161Z,24.88
2023-09-12T11:53:27.812Z,24.99
2023-09-12T11:55:59.696Z,24.98
2023-09-12T11:58:28.700Z,25.05
2023-09-12T12:00:57.951Z,25.04
2023-09-12T12:03:27.595Z,25.07
2023-09-12T12:05:57.597Z,25.14
2023-09-12T12:08:32.070Z,25.29
2023-09-12T12:11:02.311Z,25.42
2023-09-12T12:13:30.798Z,25.51
2023-09-12T12:15:59.053Z,25.52
2023-09-12T12:18:27.561Z,25.58
2023-09-12T12:20:55.892Z,25.65
2023-09-12T12:23:24.038Z,25.74
2023-09-12T12:25:51.870Z,25.81
2023-09-12T12:28:22.205Z,25.88
2023-09-12T12:30:55.859Z,25.86
2023-09-12T12:34:20.436Z,25.93
2023-09-12T12:36:11.928Z,25.99
2023-09-12T12:38:53.387Z,26.01
2023-09-12T12:41:30.963Z,26.08
2023-09-12T12:44:04.606Z,26.16
2023-09-12T12:46:32.840Z,26.26
2023-09-12T12:49:00.723Z,26.28
2023-09-12T12:51:31.085Z,26.33
2023-09-12T12:54:06.696Z,26.35
2023-09-12T12:56:34.708Z,26.38
2023-09-12T12:59:07.824Z,26.41
2023-09-12T13:01:37.493Z,26.43
2023-09-12T13:04:07.322Z,26.41
2023-09-12T13:06:37.054Z,26.43
2023-09-12T13:09:06.928Z,26.51
2023-09-12T13:11:35.848Z,26.55
2023-09-12T13:14:10.341Z,26.58
2023-09-12T13:16:38.404Z,26.67
2023-09-12T13:19:06.370Z,26.77
2023-09-12T13:21:34.429Z,26.81
2023-09-12T13:24:03.156Z,26.78
2023-09-12T13:26:32.093Z,26.74
2023-09-12T13:28:59.935Z,26.77
2023-09-12T13:31:29.104Z,26.78
2023-09-12T13:33:57.156Z,26.78
2023-09-12T13:36:25.530Z,26.79
2023-09-12T13:38:53.578Z,26.83
2023-09-12T13:41:23.290Z,26.85
2023-09-12T13:43:51.269Z,26.94
2023-09-12T13:46:19.337Z,27.03
2023-09-12T13:48:50.039Z,27.09
2023-09-12T13:51:18.159Z,27.15
2023-09-12T13:53:49.166Z,27.11
2023-09-12T13:56:17.011Z,27.11
2023-09-12T13:58:51.908Z,27.17
2023-09-12T14:01:33.165Z,27.18
2023-09-12T14:04:05.041Z,27.22
2023-09-12T14:06:35.832Z,27.08
2023-09-12T14:09:04.114Z,27.02
2023-09-12T14:11:35.582Z,27.05
2023-09-12T14:14:16.013Z,27.13
2023-09-12T14:16:48.113Z,27.28
2023-09-12T14:19:17.919Z,27.38
2023-09-12T14:21:47.117Z,27.47
2023-09-12T14:24:16.791Z,27.60
2023-09-12T14:26:46.027Z,27.67
2023-09-12T14:29:15.029Z,27.73
2023-09-12T14:31:51.252Z,27.77
2023-09-12T14:34:20.861Z,27.84
2023-09-12T14:36:48.963Z,27.77
2023-09-12T14:39:17.115Z,27.75
2023-09-12T14:41:50.845Z,27.68
2023-09-12T14:44:18.843Z,27.65
2023-09-12T14:46:46.815Z,27.64
2023-09-12T14:49:14.930Z,27.63
2023-09-12T14:51:44.285Z,27.63
2023-09-12T14:54:12.188Z,27.52
2023-09-12T14:56:40.038Z,27.43
2023-09-12T14:59:08.051Z,27.25
2023-09-12T15:01:36.573Z,27.13
2023-09-12T15:04:04.677Z,27.00
2023-09-12T15:06:34.512Z,26.88
2023-09-12T15:09:04.025Z,26.76
2023-09-12T15:11:32.385Z,26.64
2023-09-12T15:14:00.643Z,26.55
2023-09-12T15:16:28.624Z,26.46
2023-09-12T15:18:56.642Z,26.43
2023-09-12T15:21:24.529Z,26.42
2023-09-12T15:23:52.430Z,26.36
2023-09-12T15:26:21.744Z,26.30
2023-09-12T15:28:49.574Z,26.25
2023-09-12T15:31:17.420Z,26.17
2023-09-12T15:33:45.821Z,26.07
2023-09-12T15:36:14.011Z,25.98
2023-09-12T15:38:41.825Z,25.86
2023-09-12T15:41:09.881Z,25.79
2023-09-12T15:43:39.183Z,25.71
2023-09-12T15:46:07.245Z,25.63
2023-09-12T15:48:35.257Z,25.53
2023-09-12T15:51:05.378Z,25.44
2023-09-12T15:53:33.269Z,25.32
2023-09-12T15:56:01.111Z,25.24
2023-09-12T15:58:30.276Z,25.16
2023-09-12T16:01:01.121Z,25.10
2023-09-12T16:03:29.211Z,25.02
2023-09-12T16:05:57.121Z,24.93
2023-09-12T16:08:24.954Z,24.85
2023-09-12T16:10:53.049Z,24.78
2023-09-12T16:13:21.076Z,24.73
2023-09-12T16:15:48.910Z,24.64
2023-09-12T16:18:18.173Z,24.58
2023-09-12T16:20:46.030Z,24.52
2023-09-12T16:23:13.890Z,24.49
2023-09-12T16:25:41.702Z,24.44
2023-09-12T16:28:09.577Z,24.39
2023-09-12T16:30:38.830Z,24.34
2023-09-12T16:33:07.482Z,24.27
2023-09-12T16:35:36.721Z,24.20
2023-09-12T16:38:04.760Z,24.16
2023-09-12T16:40:33.468Z,24.13
2023-09-12T16:43:01.341Z,24.08
2023-09-12T16:45:29.240Z,24.04
2023-09-12T16:47:57.364Z,23.97
2023-09-12T16:50:26.995Z,23.91
2023-09-12T16:52:56.189Z,23.86
2023-09-12T16:55:24.012Z,23.82
2023-09-12T16:57:51.856Z,23.76
2023-09-12T17:00:19.871Z,23.69
2023-09-12T17:02:47.843Z,23.65
2023-09-12T17:05:15.843Z,23.59
2023-09-12T17:07:44.078Z,23.55
2023-09-12T17:10:13.252Z,23.49
2023-09-12T17:12:41.168Z,23.45
2023-09-12T17:15:12.758Z,23.39
2023-09-12T17:17:40.631Z,23.34
2023-09-12T17:20:09.216Z,23.30
2023-09-12T17:22:37.112Z,23.25
2023-09-12T17:25:05.353Z,23.21
2023-09-12T17:27:36.330Z,23.17
2023-09-12T17:30:06.413Z,23.13
2023-09-12T17:32:34.293Z,23.09
2023-09-12T17:35:03.930Z,23.08
2023-09-12T17:37:31.885Z,23.06
2023-09-12T17:39:59.742Z,23.03
2023-09-12T17:42:28.322Z,23.01
2023-09-12T17:44:57.546Z,22.97
2023-09-12T17:47:25.450Z,22.93
2023-09-12T17:49:57.401Z,22.92
2023-09-12T17:52:25.338Z,22.85
2023-09-12T17:54:53.239Z,22.80
2023-09-12T17:57:21.134Z,22.74
2023-09-12T17:59:49.599Z,22.69
2023-09-12T18:02:18.815Z,22.64
2023-09-12T18:04:46.688Z,22.58
2023-09-12T18:07:14.614Z,22.53
2023-09-12T18:09:42.429Z,22.49
2023-09-12T18:12:10.273Z,22.45
2023-09-12T18:14:38.118Z,22.42
2023-09-12T18:17:06.354Z,22.38
2023-09-12T18:19:36.480Z,22.34
2023-09-12T18:22:04.974Z,22.30
2023-09-12T18:24:33.079Z,22.25
2023-09-12T18:27:00.945Z,22.20
2023-09-12T18:29:28.795Z,22.16
2023-09-12T18:31:56.648Z,22.12
2023-09-12T18:34:24.430Z,22.07
2023-09-12T18:36:55.143Z,22.04
2023-09-12T18:39:23.016Z,22.00
2023-09-12T18:41:50.937Z,21.95
2023-09-12T18:44:18.779Z,21.93
2023-09-12T18:46:46.703Z,21.90
2023-09-12T18:49:14.626Z,21.86
2023-09-12T18:51:42.582Z,21.83
2023-09-12T18:54:19.677Z,21.78
2023-09-12T18:56:47.527Z,21.75
2023-09-12T18:59:15.387Z,21.70
2023-09-12T19:01:44.220Z,21.65
2023-09-12T19:04:25.382Z,21.60
2023-09-12T19:06:53.636Z,21.56
2023-09-12T19:09:23.224Z,21.52
2023-09-12T19:11:51.454Z,21.48
2023-09-12T19:14:19.320Z,21.44
2023-09-12T19:16:47.512Z,21.40
2023-09-12T19:19:15.421Z,21.37
2023-09-12T19:21:43.480Z,21.34
2023-09-12T19:24:12.010Z,21.31
2023-09-12T19:26:41.316Z,21.28
2023-09-12T19:29:09.184Z,21.26
2023-09-12T19:31:37.174Z,21.24
2023-09-12T19:34:06.385Z,21.22
2023-09-12T19:36:34.306Z,21.19
2023-09-12T19:39:02.788Z,21.17
2023-09-12T19:41:30.917Z,21.13
2023-09-12T19:44:00.271Z,21.11
2023-09-12T19:46:28.202Z,21.08
2023-09-12T19:48:56.240Z,21.05
2023-09-12T19:51:24.184Z,21.03
2023-09-12T19:53:52.301Z,21.00
2023-09-12T19:56:20.173Z,20.98
2023-09-12T19:58:47.989Z,20.96
2023-09-12T20:01:17.316Z,20.96
2023-09-12T20:03:45.430Z,20.95
2023-09-12T20:06:13.577Z,20.93
2023-09-12T20:08:41.428Z,20.92
2023-09-12T20:11:10.167Z,20.91
2023-09-12T20:13:38.017Z,20.90
2023-09-12T20:16:06.295Z,20.87
2023-09-12T20:18:35.623Z,20.86
2023-09-12T20:21:04.051Z,20.83
2023-09-12T20:23:31.890Z,20.79
2023-09-12T20:26:01.869Z,20.76
2023-09-12T20:28:30.289Z,20.74
2023-09-12T20:30:58.277Z,20.71
2023-09-12T20:33:26.159Z,20.67
2023-09-12T20:35:55.634Z,20.61
2023-09-12T20:38:23.820Z,20.58
2023-09-12T20:40:51.667Z,20.57
2023-09-12T20:43:19.552Z,20.53
2023-09-12T20:45:48.753Z,20.48
2023-09-12T20:48:18.951Z,20.45
2023-09-12T20:50:47.087Z,20.41
2023-09-12T20:53:17.905Z,20.39
2023-09-12T20:55:46.222Z,20.35
2023-09-12T20:58:14.342Z,20.31
2023-09-12T21:00:42.532Z,20.25
2023-09-12T21:03:10.680Z,20.20
2023-09-12T21:05:38.692Z,20.15
2023-09-12T21:08:06.676Z,20.10
2023-09-12T21:10:35.912Z,20.01
2023-09-12T21:13:03.850Z,19.94
2023-09-12T21:15:32.632Z,19.88
2023-09-12T21:18:00.671Z,19.85
2023-09-12T21:20:28.500Z,19.82
2023-09-12T21:22:56.453Z,19.78
2023-09-12T21:25:24.999Z,19.74
2023-09-12T21:27:54.221Z,19.72
2023-09-12T21:30:22.171Z,19.69
2023-09-12T21:32:50.072Z,19.67
2023-09-12T21:35:19.812Z,19.63
2023-09-12T21:37:48.995Z,19.60
2023-09-12T21:40:17.430Z,19.57
2023-09-12T21:42:45.749Z,19.53
2023-09-12T21:45:16.066Z,19.49
2023-09-12T21:47:45.145Z,19.45
2023-09-12T21:50:13.788Z,19.43
2023-09-12T21:52:42.101Z,19.42
2023-09-12T21:55:10.680Z,19.40
2023-09-12T21:57:38.726Z,19.37
2023-09-12T22:00:19.517Z,19.33
2023-09-12T22:06:36.198Z,19.23
2023-09-12T22:09:05.977Z,19.03
2023-09-12T22:11:33.998Z,18.50
2023-09-12T22:14:01.807Z,18.14
2023-09-12T22:16:29.743Z,17.88
2023-09-12T22:18:57.757Z,17.68
2023-09-12T22:21:25.659Z,17.50
2023-09-12T22:23:54.812Z,17.47
2023-09-12T22:26:22.657Z,17.48
2023-09-12T22:28:50.444Z,17.50
2023-09-12T22:31:18.366Z,17.51
2023-09-12T22:33:46.493Z,17.52
2023-09-12T22:36:19.383Z,17.50
2023-09-12T22:38:48.016Z,17.50
2023-09-12T22:41:17.526Z,17.50
2023-09-12T22:43:45.615Z,17.48
2023-09-12T22:46:13.758Z,17.50
2023-09-12T22:48:41.699Z,17.48
2023-09-12T22:51:09.606Z,17.47
2023-09-12T22:53:37.427Z,17.47
2023-09-12T22:56:05.482Z,17.47
2023-09-12T22:58:34.647Z,17.47
2023-09-12T23:01:03.840Z,17.47
2023-09-12T23:03:31.850Z,17.45
2023-09-12T23:06:01.666Z,17.43
2023-09-12T23:08:29.507Z,17.43
2023-09-12T23:10:57.318Z,17.41
2023-09-12T23:13:25.152Z,17.37
2023-09-12T23:15:54.775Z,17.34
2023-09-12T23:18:22.642Z,17.30
2023-09-12T23:20:50.469Z,17.27
2023-09-12T23:23:18.323Z,17.21
2023-09-12T23:25:46.106Z,17.18
2023-09-12T23:28:14.113Z,17.11
2023-09-12T23:30:42.661Z,17.10
2023-09-12T23:33:11.982Z,17.09
2023-09-12T23:35:43.326Z,17.04
2023-09-12T23:38:12.050Z,17.03
2023-09-12T23:40:39.847Z,17.01
2023-09-12T23:43:07.740Z,17.03
2023-09-12T23:45:35.629Z,17.02
2023-09-12T23:48:04.539Z,16.99
2023-09-12T23:50:34.038Z,16.99
2023-09-12T23:53:01.878Z,17.00
2023-09-12T23:55:29.769Z,17.01
2023-09-12T23:57:57.672Z,17.00
